Time;durP1;ratioP1;P1;durP2;ratioP2;P2;SDS_P1;SDS_P2;PMS_P1;PMS_P2;Temp;Humidity;BMP_temperature;BMP_pressure;BME280_temperature;BME280_humidity;BME280_pressure;Samples;Min_cycle;Max_cycle;Signal;HPM_P1;HPM_P2
2024/04/10 00:02:31;;;;;;;0.00;0.00;;;26.00;43.00;;;;;;5289487;27;20279;-53
2024/04/10 00:05:01;;;;;;;0.00;0.00;;;26.00;42.90;;;;;;5306181;27;20220;-50
2024/04/10 00:07:33;;;;;;;0.00;0.00;;;26.00;43.00;;;;;;5304924;26;20965;-47
2024/04/10 00:10:03;;;;;;;0.00;0.00;;;26.00;42.80;;;;;;5284856;26;20230;-46
2024/04/10 00:12:38;;;;;;;0.00;0.00;;;26.00;42.80;;;;;;5271696;27;20279;-52
2024/04/10 00:15:08;;;;;;;0.00;0.00;;;26.00;42.70;;;;;;5283360;27;20263;-47
2024/04/10 00:17:40;;;;;;;0.00;0.00;;;26.00;42.60;;;;;;5279693;26;20233;-46
2024/04/10 00:20:10;;;;;;;0.00;0.00;;;26.00;42.70;;;;;;5272436;27;20237;-46
2024/04/10 00:22:42;;;;;;;0.00;0.00;;;26.00;42.50;;;;;;5271467;27;20230;-47
2024/04/10 00:25:11;;;;;;;0.00;0.00;;;26.00;42.50;;;;;;5270453;27;20217;-51
2024/04/10 00:27:46;;;;;;;0.00;0.00;;;26.00;42.50;;;;;;5275993;27;20283;-50
2024/04/10 00:30:16;;;;;;;0.00;0.00;;;26.00;42.60;;;;;;5270572;27;20237;-47
2024/04/10 00:32:51;;;;;;;0.00;0.00;;;26.00;42.60;;;;;;5283301;27;20270;-47
2024/04/10 00:35:20;;;;;;;0.00;0.00;;;26.00;42.70;;;;;;5273832;26;21091;-49
2024/04/10 00:37:52;;;;;;;0.00;0.00;;;26.00;42.70;;;;;;5290438;27;20228;-47
2024/04/10 00:40:21;;;;;;;0.00;0.00;;;26.00;42.80;;;;;;5299349;26;20228;-48
2024/04/10 00:42:57;;;;;;;0.00;0.00;;;26.00;42.80;;;;;;5304588;26;20220;-48
2024/04/10 00:45:26;;;;;;;0.00;0.00;;;26.00;42.80;;;;;;5305368;26;20270;-47
2024/04/10 00:47:58;;;;;;;0.00;0.00;;;26.10;42.90;;;;;;5296459;26;20233;-47
2024/04/10 00:50:28;;;;;;;0.00;0.00;;;26.00;42.80;;;;;;5274191;27;20597;-49
2024/04/10 00:53:00;;;;;;;0.00;0.00;;;26.00;42.80;;;;;;5303090;27;20296;-48
2024/04/10 00:55:30;;;;;;;0.00;0.00;;;26.10;42.90;;;;;;5307855;26;21093;-48
2024/04/10 00:58:05;;;;;;;0.00;0.00;;;26.00;42.90;;;;;;5307959;26;20228;-51
2024/04/10 01:00:35;;;;;;;0.00;0.00;;;26.10;42.80;;;;;;5304427;26;20227;-48
2024/04/10 01:03:09;;;;;;;0.00;0.00;;;26.10;42.70;;;;;;5284340;26;20225;-51
2024/04/10 01:05:38;;;;;;;0.08;0.08;;;26.00;42.60;;;;;;5273995;27;20749;-55
2024/04/10 01:08:11;;;;;;;0.00;0.00;;;26.00;42.80;;;;;;5273614;27;20292;-47
2024/04/10 01:10:41;;;;;;;0.00;0.00;;;26.00;42.80;;;;;;5277989;27;20229;-51
2024/04/10 01:13:18;;;;;;;0.00;0.00;;;26.00;42.70;;;;;;5273618;27;20335;-48
2024/04/10 01:15:47;;;;;;;0.00;0.00;;;26.00;42.80;;;;;;5278912;27;20231;-49
2024/04/10 01:18:20;;;;;;;0.00;0.00;;;26.00;42.90;;;;;;5307735;26;20693;-51
2024/04/10 01:20:49;;;;;;;0.00;0.00;;;26.00;42.90;;;;;;5307403;26;20229;-48
2024/04/10 01:23:25;;;;;;;0.00;0.00;;;25.90;42.70;;;;;;5308115;26;20224;-50
2024/04/10 01:25:54;;;;;;;0.00;0.00;;;26.00;42.80;;;;;;5306901;26;20290;-53
2024/04/10 01:28:26;;;;;;;0.00;0.00;;;26.00;42.80;;;;;;5291807;26;20293;-47
2024/04/10 01:30:56;;;;;;;0.00;0.00;;;26.00;42.70;;;;;;5273233;27;20331;-51
2024/04/10 01:33:28;;;;;;;0.00;0.00;;;26.00;42.50;;;;;;5273506;27;20320;-55
2024/04/10 01:35:57;;;;;;;0.00;0.00;;;25.90;42.30;;;;;;5273734;27;20272;-52
2024/04/10 01:38:33;;;;;;;0.00;0.00;;;25.90;42.10;;;;;;5273106;27;20674;-55
2024/04/10 01:41:02;;;;;;;0.00;0.00;;;25.90;42.00;;;;;;5272817;27;20811;-55
2024/04/10 01:43:35;;;;;;;0.00;0.00;;;25.90;41.80;;;;;;5272746;27;20226;-52
2024/04/10 01:46:04;;;;;;;0.00;0.00;;;25.90;41.80;;;;;;5272420;27;20222;-56
2024/04/10 01:48:37;;;;;;;0.00;0.00;;;25.90;41.80;;;;;;5272819;27;20335;-53
2024/04/10 01:51:06;;;;;;;0.00;0.00;;;25.80;41.70;;;;;;5276533;27;20221;-49
2024/04/10 01:53:41;;;;;;;0.00;0.00;;;25.80;41.70;;;;;;5283677;26;20245;-49
2024/04/10 01:56:10;;;;;;;0.00;0.00;;;25.80;41.60;;;;;;5275222;27;20663;-56
2024/04/10 01:58:43;;;;;;;0.00;0.00;;;25.80;41.60;;;;;;5274663;27;20237;-53
2024/04/10 02:01:12;;;;;;;0.00;0.00;;;25.80;41.60;;;;;;5276615;27;21423;-57
2024/04/10 02:03:44;;;;;;;0.00;0.00;;;25.80;41.70;;;;;;5302501;27;20272;-52
2024/04/10 02:06:13;;;;;;;0.00;0.00;;;25.80;41.80;;;;;;5311572;26;20254;-58
2024/04/10 02:08:48;;;;;;;0.00;0.00;;;25.70;41.90;;;;;;5311069;26;20719;-52
2024/04/10 02:11:25;;;;;;;0.00;0.00;;;25.80;41.90;;;;;;5311330;26;20270;-51
2024/04/10 02:13:58;;;;;;;0.00;0.00;;;25.80;42.00;;;;;;5311451;26;20705;-49
2024/04/10 02:16:27;;;;;;;0.00;0.00;;;25.70;42.00;;;;;;5310646;26;20735;-53
2024/04/10 02:19:00;;;;;;;0.00;0.00;;;25.70;42.00;;;;;;5311000;26;20768;-50
2024/04/10 02:21:31;;;;;;;0.00;0.00;;;25.80;42.00;;;;;;5311185;26;20618;-52
2024/04/10 02:24:06;;;;;;;0.00;0.00;;;25.80;41.90;;;;;;5311531;26;20267;-47
2024/04/10 02:26:35;;;;;;;0.00;0.00;;;25.80;42.00;;;;;;5311315;26;20270;-55
2024/04/10 02:29:09;;;;;;;0.00;0.00;;;25.70;42.00;;;;;;5305902;26;20264;-55
2024/04/10 02:31:38;;;;;;;0.00;0.00;;;25.70;41.90;;;;;;5305223;26;20229;-50
2024/04/10 02:34:10;;;;;;;0.00;0.00;;;25.80;41.80;;;;;;5310517;26;20236;-52
2024/04/10 02:36:40;;;;;;;0.00;0.00;;;25.70;41.70;;;;;;5310820;26;20807;-53
2024/04/10 02:39:16;;;;;;;0.00;0.00;;;25.80;41.80;;;;;;5310965;26;20232;-53
2024/04/10 02:41:45;;;;;;;0.00;0.00;;;25.70;41.80;;;;;;5310911;26;20346;-53
2024/04/10 02:44:17;;;;;;;0.00;0.00;;;25.70;41.90;;;;;;5310525;26;20225;-57
2024/04/10 02:46:46;;;;;;;0.00;0.00;;;25.70;42.00;;;;;;5311028;26;20216;-55
2024/04/10 02:49:19;;;;;;;0.00;0.00;;;25.70;42.00;;;;;;5311354;26;20236;-55
2024/04/10 02:51:48;;;;;;;0.00;0.00;;;25.70;42.00;;;;;;5311622;26;20212;-53
2024/04/10 02:54:23;;;;;;;0.00;0.00;;;25.70;42.10;;;;;;5311037;26;20291;-54
2024/04/10 02:56:52;;;;;;;0.00;0.00;;;25.70;42.10;;;;;;5310465;26;20321;-52
2024/04/10 02:59:25;;;;;;;0.00;0.00;;;25.70;42.60;;;;;;5310293;26;20236;-52
2024/04/10 03:01:54;;;;;;;0.00;0.00;;;25.70;42.20;;;;;;5311417;26;20701;-53
2024/04/10 03:04:26;;;;;;;0.00;0.00;;;25.70;42.30;;;;;;5311461;26;20225;-53
2024/04/10 03:06:55;;;;;;;0.00;0.00;;;25.70;42.30;;;;;;5280171;26;20335;-49
2024/04/10 03:09:31;;;;;;;0.00;0.00;;;25.70;42.30;;;;;;5278604;27;20623;-49
2024/04/10 03:12:01;;;;;;;0.00;0.00;;;25.70;42.30;;;;;;5280696;27;20264;-51
2024/04/10 03:14:36;;;;;;;0.00;0.00;;;25.70;42.30;;;;;;5276498;27;20221;-51
2024/04/10 03:17:06;;;;;;;0.00;0.00;;;25.70;42.40;;;;;;5276789;27;20340;-53
2024/04/10 03:22:21;;;;;;;0.00;0.00;;;25.70;42.40;;;;;;5693790;21;20723;-50
2024/04/10 03:24:59;;;;;;;0.00;0.00;;;25.70;42.40;;;;;;5340975;26;20608;-49
2024/04/10 03:27:39;;;;;;;0.00;0.00;;;25.70;42.40;;;;;;5340404;26;20776;-48
2024/04/10 03:30:12;;;;;;;0.00;0.00;;;25.70;42.40;;;;;;5342509;26;20579;-53
2024/04/10 03:32:50;;;;;;;0.00;0.00;;;25.70;42.30;;;;;;5342867;26;20600;-47
2024/04/10 03:35:40;;;;;;;0.00;0.00;;;25.70;42.20;;;;;;5343724;26;20562;-51
2024/04/10 03:38:13;;;;;;;0.00;0.00;;;25.70;42.20;;;;;;5343213;26;20568;-53
2024/04/10 03:40:50;;;;;;;0.00;0.00;;;25.70;42.10;;;;;;5343058;26;20235;-51
2024/04/10 03:43:23;;;;;;;0.00;0.00;;;25.70;42.20;;;;;;5343815;26;20577;-47
2024/04/10 03:45:58;;;;;;;0.00;0.00;;;25.60;42.10;;;;;;5344228;26;20589;-48
2024/04/10 03:48:31;;;;;;;0.00;0.00;;;25.60;42.30;;;;;;5344901;26;20564;-52
2024/04/10 03:51:05;;;;;;;0.00;0.00;;;25.70;42.40;;;;;;5344506;26;20582;-51
2024/04/10 03:53:35;;;;;;;0.00;0.00;;;25.60;42.40;;;;;;5343614;26;20565;-54
2024/04/10 03:56:12;;;;;;;0.00;0.00;;;25.70;42.40;;;;;;5343890;26;20679;-46
2024/04/10 03:58:46;;;;;;;0.00;0.00;;;25.60;42.40;;;;;;5343969;26;20726;-46
2024/04/10 04:01:15;;;;;;;0.00;0.00;;;25.70;42.50;;;;;;5343857;26;20576;-47
2024/04/10 04:03:48;;;;;;;0.00;0.00;;;25.70;42.50;;;;;;5344257;26;20219;-46
2024/04/10 04:06:18;;;;;;;0.00;0.00;;;25.70;42.50;;;;;;5343938;26;20560;-46
2024/04/10 04:08:53;;;;;;;0.00;0.00;;;25.70;42.50;;;;;;5344362;26;20570;-47
2024/04/10 04:11:27;;;;;;;0.00;0.00;;;25.70;42.50;;;;;;5344188;26;20604;-50
2024/04/10 04:14:01;;;;;;;0.00;0.00;;;25.70;42.50;;;;;;5344094;26;20729;-51
2024/04/10 04:16:31;;;;;;;0.00;0.00;;;25.70;42.60;;;;;;5344182;26;20556;-49
2024/04/10 04:24:15;;;;;;;0.00;0.00;;;25.60;42.60;;;;;;5563963;21;20304;-48
2024/04/10 04:26:48;;;;;;;0.10;0.10;;;25.70;42.70;;;;;;5413582;26;20615;-47
2024/04/10 04:29:21;;;;;;;0.00;0.00;;;25.70;42.70;;;;;;5393233;26;20654;-46
2024/04/10 04:31:51;;;;;;;0.00;0.00;;;25.60;42.70;;;;;;5378578;26;20564;-48
2024/04/10 04:34:24;;;;;;;0.00;0.00;;;25.60;42.70;;;;;;5378843;26;20606;-47
2024/04/10 04:36:54;;;;;;;0.00;0.00;;;25.60;42.60;;;;;;5379050;26;20238;-47
2024/04/10 04:39:28;;;;;;;0.00;0.00;;;25.60;42.60;;;;;;5378259;26;20643;-49
2024/04/10 04:42:01;;;;;;;0.00;0.00;;;25.60;42.60;;;;;;5382826;26;20592;-49
2024/04/10 04:44:34;;;;;;;0.00;0.00;;;25.60;42.60;;;;;;5378609;26;20545;-47
2024/04/10 04:47:04;;;;;;;0.00;0.00;;;25.60;42.60;;;;;;5377978;26;20563;-46
2024/04/10 04:49:37;;;;;;;0.00;0.00;;;25.60;42.50;;;;;;5378188;26;20651;-47
2024/04/10 04:52:06;;;;;;;0.00;0.00;;;25.60;42.50;;;;;;5377978;26;20560;-47
2024/04/10 04:54:40;;;;;;;0.00;0.00;;;25.60;42.40;;;;;;5378787;26;20617;-49
2024/04/10 04:57:13;;;;;;;0.10;0.10;;;25.60;42.50;;;;;;5378577;26;20648;-47
2024/04/10 04:59:45;;;;;;;0.00;0.00;;;25.60;42.40;;;;;;5380881;26;20641;-47
2024/04/10 05:02:15;;;;;;;0.00;0.00;;;25.60;42.50;;;;;;5382828;26;20271;-47
2024/04/10 05:05:02;;;;;;;0.00;0.00;;;25.60;42.50;;;;;;5413222;26;20577;-46
2024/04/10 05:07:36;;;;;;;0.00;0.00;;;25.60;42.50;;;;;;5413201;26;20608;-46
2024/04/10 05:10:05;;;;;;;0.00;0.00;;;25.60;42.50;;;;;;5388203;26;20645;-46
2024/04/10 05:12:42;;;;;;;0.00;0.00;;;25.60;42.50;;;;;;5380688;26;20629;-46
2024/04/10 05:15:13;;;;;;;0.00;0.00;;;25.60;42.50;;;;;;5377888;26;20544;-48
2024/04/10 05:17:48;;;;;;;0.00;0.00;;;25.60;42.50;;;;;;5391561;26;20627;-47
2024/04/10 05:31:09;;;;;;;0.00;0.00;;;25.50;42.50;;;;;;5704841;21;20250;-54
2024/04/10 05:33:39;;;;;;;0.00;0.00;;;25.60;42.50;;;;;;5344239;26;20660;-55
2024/04/10 05:36:12;;;;;;;0.00;0.00;;;25.60;42.50;;;;;;5340525;26;20815;-50
2024/04/10 05:38:42;;;;;;;0.00;0.00;;;25.50;42.40;;;;;;5340973;26;20638;-52
2024/04/10 05:44:26;;;;;;;0.00;0.00;;;25.60;42.50;;;;;;5329175;26;20332;-50
2024/04/10 05:47:00;;;;;;;0.00;0.00;;;25.60;43.10;;;;;;5340720;26;20550;-49
2024/04/10 05:49:34;;;;;;;0.00;0.00;;;25.60;42.50;;;;;;5339473;26;20614;-50
2024/04/10 05:52:04;;;;;;;0.00;0.00;;;25.60;42.60;;;;;;5340698;26;20561;-49
2024/04/10 05:54:37;;;;;;;0.00;0.00;;;25.50;42.60;;;;;;5342120;26;20572;-49
2024/04/10 05:57:07;;;;;;;0.00;0.00;;;25.50;42.60;;;;;;5341091;26;20568;-49
2024/04/10 05:59:40;;;;;;;0.00;0.00;;;25.50;42.60;;;;;;5341798;26;20247;-52
2024/04/10 06:02:13;;;;;;;0.00;0.00;;;25.50;42.70;;;;;;5340763;26;20566;-52
2024/04/10 06:04:46;;;;;;;0.00;0.00;;;25.50;42.70;;;;;;5341591;26;20608;-51
2024/04/10 06:07:16;;;;;;;0.00;0.00;;;25.50;42.60;;;;;;5341261;26;20644;-48
2024/04/10 06:09:49;;;;;;;0.00;0.00;;;25.50;42.70;;;;;;5340822;26;20565;-49
2024/04/10 06:12:19;;;;;;;0.00;0.00;;;25.50;42.60;;;;;;5340724;26;20608;-49
2024/04/10 06:14:55;;;;;;;0.00;0.00;;;25.50;42.70;;;;;;5341297;26;20616;-51
2024/04/10 06:17:29;;;;;;;0.00;0.00;;;25.50;42.70;;;;;;5342278;26;20714;-54
2024/04/10 06:20:05;;;;;;;0.00;0.00;;;25.50;42.80;;;;;;5341272;26;20928;-49
2024/04/10 06:22:34;;;;;;;0.00;0.00;;;25.40;42.80;;;;;;5341523;26;20567;-49
2024/04/10 06:25:07;;;;;;;0.00;0.00;;;25.50;42.90;;;;;;5340508;26;20255;-49
2024/04/10 06:27:37;;;;;;;0.00;0.00;;;25.40;42.80;;;;;;5341154;26;20665;-48
2024/04/10 06:30:11;;;;;;;0.00;0.00;;;25.40;42.90;;;;;;5340434;26;20604;-50
2024/04/10 06:32:44;;;;;;;0.00;0.00;;;25.40;42.90;;;;;;5341025;26;20631;-49
2024/04/10 06:35:18;;;;;;;0.00;0.00;;;25.50;42.90;;;;;;5341547;26;20628;-49
2024/04/10 06:37:47;;;;;;;0.00;0.00;;;25.50;42.90;;;;;;5340795;26;20601;-50
2024/04/10 06:40:20;;;;;;;0.00;0.00;;;25.40;42.90;;;;;;5344472;26;20599;-49
2024/04/10 06:42:50;;;;;;;0.00;0.00;;;25.40;43.00;;;;;;5346043;26;20552;-51
2024/04/10 06:45:23;;;;;;;0.00;0.00;;;25.40;43.00;;;;;;5344415;26;20577;-49
2024/04/10 06:47:56;;;;;;;0.00;0.00;;;25.40;43.00;;;;;;5344407;26;20612;-50
2024/04/10 06:50:29;;;;;;;0.00;0.00;;;25.40;42.90;;;;;;5346131;26;20666;-50
2024/04/10 06:53:00;;;;;;;0.00;0.00;;;25.40;42.90;;;;;;5345900;26;20546;-49
2024/04/10 06:55:33;;;;;;;0.00;0.00;;;25.40;42.90;;;;;;5345307;26;20558;-49
2024/04/10 06:58:03;;;;;;;0.00;0.00;;;25.40;42.80;;;;;;5345768;26;20588;-50
2024/04/10 07:00:36;;;;;;;0.00;0.00;;;25.40;42.90;;;;;;5345154;26;20607;-49
2024/04/10 07:03:09;;;;;;;0.00;0.00;;;25.40;42.90;;;;;;5345337;26;20220;-50
2024/04/10 07:05:47;;;;;;;0.00;0.00;;;25.40;42.90;;;;;;5344538;26;20658;-50
2024/04/10 07:08:16;;;;;;;0.00;0.00;;;25.40;43.00;;;;;;5345082;26;20640;-49
2024/04/10 07:10:56;;;;;;;0.00;0.00;;;25.30;43.00;;;;;;5345572;26;20592;-49
2024/04/10 07:13:26;;;;;;;0.00;0.00;;;25.30;43.00;;;;;;5344322;26;20562;-49
2024/04/10 07:16:06;;;;;;;0.00;0.00;;;25.30;43.10;;;;;;5345254;26;20591;-50
2024/04/10 07:18:40;;;;;;;0.00;0.00;;;25.30;43.10;;;;;;5345345;26;20223;-50
2024/04/10 07:21:13;;;;;;;0.00;0.00;;;25.30;43.10;;;;;;5345587;26;20286;-50
2024/04/10 07:23:45;;;;;;;0.00;0.00;;;25.30;43.10;;;;;;5345544;26;20680;-50
2024/04/10 07:26:20;;;;;;;0.00;0.00;;;25.30;43.10;;;;;;5344288;26;20595;-49
2024/04/10 07:28:52;;;;;;;0.00;0.00;;;25.30;43.20;;;;;;5344112;26;20616;-48
2024/04/10 07:31:28;;;;;;;0.00;0.00;;;25.30;43.20;;;;;;5344578;26;20638;-49
2024/04/10 07:34:02;;;;;;;0.00;0.00;;;25.30;43.20;;;;;;5344708;26;20688;-48
2024/04/10 07:36:37;;;;;;;0.00;0.00;;;25.30;43.10;;;;;;5345689;26;20642;-48
2024/04/10 07:39:07;;;;;;;0.00;0.00;;;25.30;43.10;;;;;;5344956;26;20663;-49
2024/04/10 07:41:39;;;;;;;0.00;0.00;;;25.30;43.10;;;;;;5345001;26;20261;-50
2024/04/10 07:44:09;;;;;;;0.00;0.00;;;25.30;43.10;;;;;;5344559;26;20616;-49
2024/04/10 07:46:43;;;;;;;0.00;0.00;;;25.30;43.10;;;;;;5344518;26;20566;-52
2024/04/10 07:49:17;;;;;;;0.00;0.00;;;25.30;43.10;;;;;;5344621;26;20582;-51
2024/04/10 07:51:50;;;;;;;0.00;0.00;;;25.30;43.10;;;;;;5344506;26;20809;-51
2024/04/10 07:54:20;;;;;;;0.00;0.00;;;25.30;43.10;;;;;;5344090;26;20560;-51
2024/04/10 07:56:53;;;;;;;0.00;0.00;;;25.30;43.20;;;;;;5344229;26;20560;-51
2024/04/10 07:59:23;;;;;;;0.00;0.00;;;25.20;43.20;;;;;;5344564;26;20609;-53
2024/04/10 08:01:55;;;;;;;0.00;0.00;;;25.30;43.20;;;;;;5344497;26;20589;-49
2024/04/10 08:04:29;;;;;;;0.00;0.00;;;25.20;43.80;;;;;;5310364;27;20607;-51
2024/04/10 08:07:02;;;;;;;0.00;0.00;;;25.20;43.20;;;;;;5309666;27;20271;-49
2024/04/10 08:09:31;;;;;;;0.00;0.00;;;25.20;43.20;;;;;;5310205;26;20604;-52
2024/04/10 08:12:04;;;;;;;0.00;0.00;;;25.20;43.20;;;;;;5310622;27;20608;-49
2024/04/10 08:14:34;;;;;;;0.00;0.00;;;25.20;43.20;;;;;;5310220;27;20606;-51
2024/04/10 08:17:07;;;;;;;0.00;0.00;;;25.20;43.20;;;;;;5309811;27;20224;-49
2024/04/10 08:19:41;;;;;;;0.00;0.00;;;25.20;43.20;;;;;;5309724;26;20571;-50
2024/04/10 08:22:14;;;;;;;0.00;0.00;;;25.20;43.20;;;;;;5318553;26;20256;-48
2024/04/10 08:24:50;;;;;;;0.00;0.00;;;25.20;43.10;;;;;;5345910;26;20552;-49
2024/04/10 08:27:23;;;;;;;0.00;0.00;;;25.20;43.10;;;;;;5344287;26;20701;-49
2024/04/10 08:29:53;;;;;;;0.00;0.00;;;25.20;43.00;;;;;;5344461;26;20731;-50
2024/04/10 08:32:26;;;;;;;0.00;0.00;;;25.20;43.00;;;;;;5343856;26;20567;-49
2024/04/10 08:34:59;;;;;;;0.00;0.00;;;25.20;42.90;;;;;;5343988;26;20599;-53
2024/04/10 08:37:32;;;;;;;0.08;0.08;;;25.20;42.90;;;;;;5344342;26;20223;-48
2024/04/10 08:40:02;;;;;;;0.00;0.00;;;25.10;42.90;;;;;;5344347;26;20639;-50
2024/04/10 08:42:37;;;;;;;0.00;0.00;;;25.10;43.10;;;;;;5344458;26;20556;-50
2024/04/10 08:45:07;;;;;;;0.00;0.00;;;25.20;43.30;;;;;;5344545;26;20569;-48
2024/04/10 08:47:41;;;;;;;0.00;0.00;;;25.10;43.40;;;;;;5344235;26;20226;-49
2024/04/10 08:50:14;;;;;;;0.00;0.00;;;25.10;43.40;;;;;;5343781;26;20553;-51
2024/04/10 08:52:48;;;;;;;0.00;0.00;;;25.20;43.40;;;;;;5337388;26;20384;-48
2024/04/10 08:55:18;;;;;;;0.00;0.00;;;25.20;43.30;;;;;;5341471;26;20604;-48
2024/04/10 08:57:51;;;;;;;0.00;0.00;;;25.20;43.30;;;;;;5338889;26;20660;-50
2024/04/10 09:00:20;;;;;;;0.00;0.00;;;25.20;43.30;;;;;;5338138;26;20577;-49
2024/04/10 09:02:53;;;;;;;0.00;0.00;;;25.20;43.30;;;;;;5337752;26;20815;-50
2024/04/10 09:05:33;;;;;;;0.00;0.00;;;25.20;43.30;;;;;;5331504;26;20562;-50
2024/04/10 09:08:06;;;;;;;0.00;0.00;;;25.20;43.30;;;;;;5305377;27;20768;-49
2024/04/10 09:10:36;;;;;;;0.00;0.00;;;25.20;43.30;;;;;;5339055;26;20574;-51
2024/04/10 09:13:09;;;;;;;0.00;0.00;;;25.10;43.30;;;;;;5307144;27;20254;-49
2024/04/10 09:15:39;;;;;;;0.00;0.00;;;25.20;43.40;;;;;;5307568;27;20531;-49
2024/04/10 09:18:13;;;;;;;0.00;0.00;;;25.10;43.30;;;;;;5314996;26;20936;-47
2024/04/10 09:23:56;;;;;;;0.00;0.00;;;25.10;43.40;;;;;;6072927;21;20387;-46
2024/04/10 09:26:31;;;;;;;0.00;0.00;;;25.10;43.30;;;;;;5270454;27;20568;-46
2024/04/10 09:29:18;;;;;;;0.00;0.00;;;25.10;43.30;;;;;;5269490;27;20276;-46
2024/04/10 09:31:51;;;;;;;0.00;0.00;;;25.10;43.40;;;;;;5242341;27;20783;-48
2024/04/10 09:34:24;;;;;;;0.00;0.00;;;25.10;43.30;;;;;;5205074;27;20227;-46
2024/04/10 09:36:53;;;;;;;0.00;0.00;;;25.10;43.30;;;;;;5205526;27;20228;-47
2024/04/10 09:39:31;;;;;;;0.00;0.00;;;25.10;43.30;;;;;;5206369;27;20224;-49
2024/04/10 09:42:01;;;;;;;0.00;0.00;;;25.10;43.30;;;;;;5203458;27;20258;-46
2024/04/10 09:44:35;;;;;;;0.00;0.00;;;25.10;43.30;;;;;;5205797;27;20326;-47
2024/04/10 09:47:08;;;;;;;0.00;0.00;;;25.20;43.30;;;;;;5263487;27;20229;-46
2024/04/10 09:49:45;;;;;;;0.00;0.00;;;25.10;43.20;;;;;;5206062;27;20350;-46
2024/04/10 09:52:15;;;;;;;0.00;0.00;;;25.20;43.30;;;;;;5206173;27;20271;-47
2024/04/10 09:54:52;;;;;;;0.00;0.00;;;25.10;43.20;;;;;;5206480;27;20223;-46
2024/04/10 09:57:22;;;;;;;0.00;0.00;;;25.10;43.20;;;;;;5205422;27;20224;-46
2024/04/10 09:59:55;;;;;;;0.00;0.00;;;25.10;43.30;;;;;;5221513;27;20715;-46
2024/04/10 10:02:24;;;;;;;0.00;0.00;;;25.10;43.20;;;;;;5265614;27;20286;-50
2024/04/10 10:04:57;;;;;;;0.00;0.00;;;25.10;43.20;;;;;;5239340;27;20297;-47
2024/04/10 10:07:26;;;;;;;0.00;0.00;;;25.10;43.30;;;;;;5239442;27;20223;-46
2024/04/10 10:10:10;;;;;;;0.00;0.00;;;25.10;43.20;;;;;;5238354;27;20269;-46
2024/04/10 10:12:39;;;;;;;0.00;0.00;;;25.10;43.30;;;;;;5256530;27;20225;-46
2024/04/10 10:15:12;;;;;;;0.00;0.00;;;25.10;43.20;;;;;;5271886;27;20229;-47
2024/04/10 10:17:52;;;;;;;0.00;0.00;;;25.10;43.30;;;;;;5272154;27;20297;-48
2024/04/10 10:20:30;;;;;;;0.00;0.00;;;25.10;43.30;;;;;;5287192;21;20261;-53
2024/04/10 10:23:00;;;;;;;0.00;0.00;;;25.10;43.30;;;;;;5272399;27;20800;-55
2024/04/10 10:25:36;;;;;;;0.00;0.00;;;25.10;43.30;;;;;;5266896;27;20894;-53
2024/04/10 10:28:10;;;;;;;0.00;0.00;;;25.10;43.30;;;;;;5306379;26;20224;-52
2024/04/10 10:30:43;;;;;;;0.00;0.00;;;25.10;43.20;;;;;;5307289;26;20347;-54
2024/04/10 10:33:12;;;;;;;0.00;0.00;;;25.10;43.20;;;;;;5287917;26;20264;-53
2024/04/10 10:35:44;;;;;;;0.00;0.00;;;25.10;43.20;;;;;;5273013;27;20230;-54
2024/04/10 10:38:13;;;;;;;0.00;0.00;;;25.10;43.20;;;;;;5272582;27;20364;-54
2024/04/10 10:40:49;;;;;;;0.00;0.00;;;25.10;43.20;;;;;;5301973;26;20338;-54
2024/04/10 10:43:18;;;;;;;0.00;0.00;;;25.10;43.30;;;;;;5306918;26;20259;-56
2024/04/10 10:45:52;;;;;;;0.00;0.00;;;25.10;43.30;;;;;;5306277;26;20278;-55
2024/04/10 10:48:22;;;;;;;0.00;0.00;;;25.10;43.30;;;;;;5289135;26;20225;-56
2024/04/10 10:51:00;;;;;;;0.00;0.00;;;25.10;43.30;;;;;;5270731;27;20234;-52
2024/04/10 10:53:29;;;;;;;0.00;0.00;;;25.10;43.40;;;;;;5302892;27;20372;-55
2024/04/10 10:56:05;;;;;;;0.00;0.00;;;25.10;43.40;;;;;;5306249;26;20239;-56
2024/04/10 10:58:34;;;;;;;0.00;0.00;;;25.00;43.30;;;;;;5306041;26;20605;-56
2024/04/10 11:01:11;;;;;;;0.00;0.00;;;25.10;43.40;;;;;;5281372;26;20234;-54
2024/04/10 11:03:40;;;;;;;0.00;0.00;;;25.00;43.40;;;;;;5264472;27;20229;-56
2024/04/10 11:06:13;;;;;;;0.00;0.00;;;25.10;43.40;;;;;;5276996;26;20672;-56
2024/04/10 11:08:43;;;;;;;0.00;0.00;;;25.00;43.40;;;;;;5238992;27;20273;-53
2024/04/10 11:11:22;;;;;;;0.00;0.00;;;25.10;43.40;;;;;;5239197;27;20238;-56
2024/04/10 11:13:51;;;;;;;0.00;0.00;;;25.10;43.40;;;;;;5269200;27;20815;-56
2024/04/10 11:16:33;;;;;;;0.00;0.00;;;25.10;43.40;;;;;;5272531;27;20217;-54
2024/04/10 11:19:03;;;;;;;0.00;0.00;;;25.10;43.30;;;;;;5238390;27;20234;-54
2024/04/10 11:21:36;;;;;;;0.10;0.10;;;25.10;43.30;;;;;;5315536;21;20267;-48
2024/04/10 11:24:05;;;;;;;0.00;0.00;;;25.10;43.30;;;;;;5304601;27;20698;-47
2024/04/10 11:26:42;;;;;;;0.00;0.00;;;25.10;43.30;;;;;;5303975;26;20270;-47
2024/04/10 11:29:11;;;;;;;0.00;0.00;;;25.10;43.30;;;;;;5339078;26;20630;-48
2024/04/10 11:31:43;;;;;;;0.00;0.00;;;25.10;43.40;;;;;;5299799;27;20260;-48
2024/04/10 11:34:13;;;;;;;0.00;0.00;;;25.00;43.30;;;;;;5272169;27;20256;-47
2024/04/10 11:36:46;;;;;;;0.00;0.00;;;25.10;43.40;;;;;;5271506;27;20257;-47
2024/04/10 11:39:15;;;;;;;0.00;0.00;;;25.00;43.40;;;;;;5270938;27;20284;-49
2024/04/10 11:41:50;;;;;;;0.00;0.00;;;25.00;43.40;;;;;;5270419;27;20335;-47
2024/04/10 11:44:19;;;;;;;0.00;0.00;;;25.00;43.50;;;;;;5271971;27;20267;-47
2024/04/10 11:46:51;;;;;;;0.00;0.00;;;25.00;43.40;;;;;;5270999;27;20229;-47
2024/04/10 11:49:21;;;;;;;0.00;0.00;;;25.00;43.50;;;;;;5272185;27;20757;-46
2024/04/10 11:51:53;;;;;;;0.00;0.00;;;25.00;43.50;;;;;;5271716;27;20330;-50
2024/04/10 11:54:22;;;;;;;0.00;0.00;;;25.00;43.50;;;;;;5240890;27;20230;-46
2024/04/10 11:57:03;;;;;;;0.00;0.00;;;25.00;43.50;;;;;;5238839;27;20290;-46
2024/04/10 11:59:32;;;;;;;0.00;0.00;;;25.00;43.50;;;;;;5260128;27;20229;-47
2024/04/10 12:02:04;;;;;;;0.00;0.00;;;25.00;43.40;;;;;;5275614;27;20265;-48
2024/04/10 12:04:33;;;;;;;0.00;0.00;;;25.00;44.00;;;;;;5275431;27;20225;-46
2024/04/10 12:07:06;;;;;;;0.00;0.00;;;25.00;43.40;;;;;;5275572;27;20284;-47
2024/04/10 12:09:37;;;;;;;0.00;0.00;;;25.00;43.50;;;;;;5270135;27;20287;-46
2024/04/10 12:12:12;;;;;;;0.00;0.00;;;25.00;43.40;;;;;;5275568;27;20241;-46
2024/04/10 12:14:44;;;;;;;0.00;0.00;;;25.00;43.40;;;;;;5272499;27;20709;-46
2024/04/10 12:17:18;;;;;;;0.00;0.00;;;25.00;43.40;;;;;;5275551;27;20229;-46
2024/04/10 12:19:47;;;;;;;0.00;0.00;;;25.00;43.50;;;;;;5289681;21;20269;-54
2024/04/10 12:22:19;;;;;;;0.00;0.00;;;25.00;43.40;;;;;;5272920;27;20241;-56
2024/04/10 12:24:49;;;;;;;0.00;0.00;;;25.00;43.40;;;;;;5258680;27;20305;-57
2024/04/10 12:27:25;;;;;;;0.00;0.00;;;24.90;43.40;;;;;;5259866;27;20312;-54
2024/04/10 12:29:55;;;;;;;0.00;0.00;;;24.90;43.40;;;;;;5250870;27;20287;-54
2024/04/10 12:32:28;;;;;;;0.00;0.00;;;24.90;43.40;;;;;;5226542;27;20281;-53
2024/04/10 12:38:02;;;;;;;0.00;0.00;;;24.90;43.40;;;;;;5226985;27;20250;-53
2024/04/10 12:40:37;;;;;;;0.00;0.00;;;24.90;43.50;;;;;;5244281;27;20306;-54
2024/04/10 12:43:13;;;;;;;0.00;0.00;;;24.90;43.50;;;;;;5223794;27;20266;-54
2024/04/10 12:45:45;;;;;;;0.00;0.00;;;24.90;43.50;;;;;;5208984;27;20227;-55
2024/04/10 12:48:14;;;;;;;0.00;0.00;;;24.90;43.50;;;;;;5208365;27;20295;-53
2024/04/10 12:50:46;;;;;;;0.05;0.05;;;24.90;43.50;;;;;;5208807;27;20285;-55
2024/04/10 12:53:16;;;;;;;0.00;0.00;;;24.90;43.50;;;;;;5208732;27;20262;-51
2024/04/10 12:55:55;;;;;;;0.00;0.00;;;24.90;43.50;;;;;;5208032;27;20244;-55
2024/04/10 12:58:28;;;;;;;0.00;0.00;;;24.90;43.50;;;;;;5208603;27;20227;-53
2024/04/10 13:01:00;;;;;;;0.00;0.00;;;24.90;43.50;;;;;;5208261;27;20251;-55
2024/04/10 13:03:31;;;;;;;0.00;0.00;;;24.80;43.40;;;;;;5222523;27;20240;-56
2024/04/10 13:06:04;;;;;;;0.00;0.00;;;24.90;43.40;;;;;;5271895;27;20226;-54
2024/04/10 13:08:33;;;;;;;0.00;0.00;;;24.90;43.50;;;;;;5269714;27;20233;-56
2024/04/10 13:11:14;;;;;;;0.00;0.00;;;24.80;43.40;;;;;;5236660;27;20242;-57
2024/04/10 13:13:46;;;;;;;0.00;0.00;;;24.80;43.50;;;;;;5241606;27;20281;-56
2024/04/10 13:16:19;;;;;;;0.00;0.00;;;24.80;43.50;;;;;;5240918;27;20222;-56
2024/04/10 13:18:50;;;;;;;0.00;0.00;;;24.80;43.40;;;;;;5240781;27;20749;-55
2024/04/10 13:21:22;;;;;;;0.10;0.10;;;24.70;43.40;;;;;;5242028;27;20294;-53
2024/04/10 13:23:52;;;;;;;0.00;0.00;;;24.70;43.50;;;;;;5241720;27;20343;-56
2024/04/10 13:26:25;;;;;;;0.00;0.00;;;24.70;43.50;;;;;;5241207;27;20227;-54
2024/04/10 13:28:57;;;;;;;0.00;0.00;;;24.70;43.50;;;;;;5241347;27;20219;-55
2024/04/10 13:31:30;;;;;;;0.00;0.00;;;24.70;43.50;;;;;;5240996;27;20290;-57
2024/04/10 13:33:59;;;;;;;0.00;0.00;;;24.70;43.50;;;;;;5240708;27;20222;-56
2024/04/10 13:36:31;;;;;;;0.00;0.00;;;24.70;43.50;;;;;;5240904;27;20222;-56
2024/04/10 13:39:00;;;;;;;0.10;0.10;;;24.70;43.40;;;;;;5241021;27;20278;-55
2024/04/10 13:41:33;;;;;;;0.00;0.00;;;24.70;43.40;;;;;;5240389;27;20797;-56
2024/04/10 13:44:05;;;;;;;0.00;0.00;;;24.70;43.40;;;;;;5240669;27;20301;-55